Palessa — V2IA7 — position and weather

sailwx.info

Track history (hours):
 
Tides and Currents Weather Stations Pressure Air Temp Water Temp Dewpoint Dewpoint Depression Visibility Wind Speed Wind Dir Waves Ship Positions

Palessa

Last reported at 2015-Jan-25 17:29 UTC. Time now 2015-Jan-25 18:25 UTC.
Position N 51°26' E 002°35'.

Length 118 m; draft 5 m.

Type: Ship. MMSI: 304255000.

Date/timePositionNaut miles runAvg speedWind from/ knotsBaromVisibWave heightAir tempDewpointWater temp
2015-Jan-25 17:29N 51°26' E 002°35'0 0.0
2015-Jan-25 16:17N 51°26' E 002°35'0 0.0
2015-Jan-25 15:29N 51°26' E 002°35'0 0.0
2015-Jan-25 14:32N 51°26' E 002°35'0 0.1
2015-Jan-25 13:29N 51°25' E 002°35'0 0.3
2015-Jan-25 12:32N 51°25' E 002°35'1010.5
2015-Jan-25 11:32N 51°19' E 002°21'1211.9
2015-Jan-25 10:33N 51°14' E 002°05'1211.9
2015-Jan-25 09:33N 51°07' E 001°49'1211.7
2015-Jan-25 08:33N 50°59' E 001°35'  
2015-Jan-22 01:16N 39°10' W 009°48'4 5.6
2015-Jan-22 00:33N 39°06' W 009°49'5 4.8
2015-Jan-21 23:34N 39°01' W 009°49'3 4.6
2015-Jan-21 22:50N 38°58' W 009°50'0 4.2
2015-Jan-21 22:46N 38°57' W 009°50'1 5.3
2015-Jan-21 22:33N 38°56' W 009°50'5 5.1
2015-Jan-21 21:33N 38°51' W 009°50'5 4.7
2015-Jan-21 20:34N 38°47' W 009°49'5 4.9
2015-Jan-21 19:33N 38°42' W 009°49'5 4.9
2015-Jan-21 18:33N 38°37' W 009°48'5 4.8
2015-Jan-21 17:34N 38°32' W 009°48'5 4.6
2015-Jan-21 16:34N 38°28' W 009°47'5 5.1
2015-Jan-21 15:33N 38°23' W 009°45'6 5.5
2015-Jan-21 14:32N 38°17' W 009°44'5 5.5
2015-Jan-21 13:33N 38°12' W 009°42'7 5.7
2015-Jan-21 12:25N 38°05' W 009°40'5 6.1
2015-Jan-21 11:33N 38°00' W 009°39'7 6.2
2015-Jan-21 10:26N 37°54' W 009°36'13 6.6
2015-Jan-21 08:27N 37°41' W 009°33'7 6.2
2015-Jan-21 07:20N 37°34' W 009°31'212 8.1
2015-Jan-20 05:11N 35°58' W 005°36'7 9.0
2015-Jan-20 04:23N 35°59' W 005°27'810.1
2015-Jan-20 03:33N 35°54' W 005°19'1 0.5
2015-Jan-20 02:34N 35°54' W 005°18'0 0.0
2015-Jan-20 01:28N 35°54' W 005°18'0 0.0
2015-Jan-20 00:34N 35°54' W 005°18'  
2015-Jan-15 21:28N 37°37' E 010°23'1313.8
2015-Jan-15 20:33N 37°34' E 010°39'1413.9
2015-Jan-15 19:33N 37°31' E 010°56'  
Track history (hours):
 
Tides and Currents Weather Stations Pressure Air Temp Water Temp Dewpoint Dewpoint Depression Visibility Wind Speed Wind Dir Waves Ship Positions

Palessa

Last reported at 2015-Jan-25 17:29 UTC. Time now 2015-Jan-25 18:25 UTC.
Position N 51°26' E 002°35'.

Length 118 m; draft 5 m.

Type: Ship. MMSI: 304255000.

Date/timePositionNaut miles runAvg speedWind from/ knotsBaromVisibWave heightAir tempDewpointWater temp
2015-Jan-25 17:29N 51°26' E 002°35'0 0.0
2015-Jan-25 16:17N 51°26' E 002°35'0 0.0
2015-Jan-25 15:29N 51°26' E 002°35'0 0.0
2015-Jan-25 14:32N 51°26' E 002°35'0 0.1
2015-Jan-25 13:29N 51°25' E 002°35'0 0.3
2015-Jan-25 12:32N 51°25' E 002°35'1010.5
2015-Jan-25 11:32N 51°19' E 002°21'1211.9
2015-Jan-25 10:33N 51°14' E 002°05'1211.9
2015-Jan-25 09:33N 51°07' E 001°49'1211.7
2015-Jan-25 08:33N 50°59' E 001°35'  
2015-Jan-22 01:16N 39°10' W 009°48'4 5.6
2015-Jan-22 00:33N 39°06' W 009°49'5 4.8
2015-Jan-21 23:34N 39°01' W 009°49'3 4.6
2015-Jan-21 22:50N 38°58' W 009°50'0 4.2
2015-Jan-21 22:46N 38°57' W 009°50'1 5.3
2015-Jan-21 22:33N 38°56' W 009°50'5 5.1
2015-Jan-21 21:33N 38°51' W 009°50'5 4.7
2015-Jan-21 20:34N 38°47' W 009°49'5 4.9
2015-Jan-21 19:33N 38°42' W 009°49'5 4.9
2015-Jan-21 18:33N 38°37' W 009°48'5 4.8
2015-Jan-21 17:34N 38°32' W 009°48'5 4.6
2015-Jan-21 16:34N 38°28' W 009°47'5 5.1
2015-Jan-21 15:33N 38°23' W 009°45'6 5.5
2015-Jan-21 14:32N 38°17' W 009°44'5 5.5
2015-Jan-21 13:33N 38°12' W 009°42'7 5.7
2015-Jan-21 12:25N 38°05' W 009°40'5 6.1
2015-Jan-21 11:33N 38°00' W 009°39'7 6.2
2015-Jan-21 10:26N 37°54' W 009°36'13 6.6
2015-Jan-21 08:27N 37°41' W 009°33'7 6.2
2015-Jan-21 07:20N 37°34' W 009°31'212 8.1
2015-Jan-20 05:11N 35°58' W 005°36'7 9.0
2015-Jan-20 04:23N 35°59' W 005°27'810.1
2015-Jan-20 03:33N 35°54' W 005°19'1 0.5
2015-Jan-20 02:34N 35°54' W 005°18'0 0.0
2015-Jan-20 01:28N 35°54' W 005°18'0 0.0
2015-Jan-20 00:34N 35°54' W 005°18'  
2015-Jan-15 21:28N 37°37' E 010°23'1313.8
2015-Jan-15 20:33N 37°34' E 010°39'1413.9
2015-Jan-15 19:33N 37°31' E 010°56'  

Dump ship's entire track history